Time;durP1;ratioP1;P1;durP2;ratioP2;P2;SDS_P1;SDS_P2;PMS_P1;PMS_P2;Temp;Humidity;BMP_temperature;BMP_pressure;BME280_temperature;BME280_humidity;BME280_pressure;Samples;Min_cycle;Max_cycle;Signal;HPM_P1;HPM_P2
2023/01/19 00:00:30;;;;;;;16.98;9.30;;;;;;;14.86;49.34;100056.41;6156293;23;20028;-38
2023/01/19 00:02:56;;;;;;;17.92;9.95;;;;;;;14.86;49.37;100047.56;6157918;23;20298;-35
2023/01/19 00:05:23;;;;;;;16.52;8.80;;;;;;;14.86;50.18;100047.56;6156034;23;20028;-35
2023/01/19 00:07:49;;;;;;;14.82;8.20;;;;;;;14.87;50.43;100047.41;6155358;23;20271;-36
2023/01/19 00:10:16;;;;;;;16.48;9.13;;;;;;;14.89;50.44;100049.94;6155443;23;20032;-35
2023/01/19 00:12:43;;;;;;;14.25;8.35;;;;;;;14.88;49.62;100043.78;6157182;23;20353;-36
2023/01/19 00:15:10;;;;;;;15.45;8.40;;;;;;;14.89;49.78;100068.63;6158577;23;20274;-35
2023/01/19 00:17:39;;;;;;;15.25;8.88;;;;;;;14.91;50.15;100066.63;6157672;23;20021;-35
2023/01/19 00:20:07;;;;;;;16.23;8.30;;;;;;;14.91;49.75;100047.94;6156442;23;20021;-35
2023/01/19 00:22:34;;;;;;;17.13;8.65;;;;;;;14.92;50.63;100044.31;6157153;23;20032;-35
2023/01/19 00:25:00;;;;;;;15.55;8.35;;;;;;;14.90;50.28;100041.78;6155699;23;20021;-36
2023/01/19 00:27:29;;;;;;;16.13;8.55;;;;;;;14.90;50.38;100038.28;6157304;23;20309;-36
2023/01/19 00:29:55;;;;;;;15.30;7.80;;;;;;;14.89;49.99;100041.94;6157114;23;20025;-35
2023/01/19 00:32:22;;;;;;;14.82;7.85;;;;;;;14.90;50.61;100054.28;6157226;23;20040;-36
2023/01/19 00:34:51;;;;;;;12.95;7.60;;;;;;;14.89;50.38;100057.94;6155983;23;20035;-35
2023/01/19 00:37:17;;;;;;;12.15;7.30;;;;;;;14.88;50.44;100062.44;6156191;23;20029;-35
2023/01/19 00:39:44;;;;;;;14.18;7.97;;;;;;;14.89;50.39;100068.63;6155347;23;20101;-35
2023/01/19 00:44:57;;;;;;;14.82;7.28;;;;;;;14.88;49.82;100066.94;6154628;23;20025;-35
2023/01/19 00:47:23;;;;;;;14.88;7.35;;;;;;;14.87;50.64;100066.09;6155481;23;20025;-35
2023/01/19 00:49:50;;;;;;;13.02;7.07;;;;;;;14.87;50.53;100060.75;6156767;23;20064;-35
2023/01/19 00:52:17;;;;;;;12.10;6.72;;;;;;;14.86;50.54;100056.41;6154593;23;20025;-35
2023/01/19 00:54:43;;;;;;;12.15;6.97;;;;;;;14.85;50.34;100052.06;6155882;23;20021;-35
2023/01/19 00:57:10;;;;;;;12.10;6.75;;;;;;;14.85;51.32;100051.25;6157139;23;20021;-35
2023/01/19 00:59:36;;;;;;;13.00;7.22;;;;;;;14.86;51.06;100052.91;6156270;23;20025;-35
2023/01/19 01:02:03;;;;;;;11.00;6.43;;;;;;;14.86;51.05;100047.56;6155268;23;20457;-36
2023/01/19 01:04:30;;;;;;;11.73;6.40;;;;;;;14.85;50.96;100046.75;6155253;23;20036;-35
2023/01/19 01:06:56;;;;;;;11.88;6.07;;;;;;;14.86;51.11;100051.06;6155994;23;20286;-36
2023/01/19 01:09:23;;;;;;;10.50;6.30;;;;;;;14.87;51.26;100059.91;6154467;23;20025;-38
2023/01/19 01:11:50;;;;;;;9.35;5.55;;;;;;;14.86;50.25;100064.41;6155455;23;20022;-35
2023/01/19 01:14:17;;;;;;;10.15;5.93;;;;;;;14.86;50.54;100061.75;6155816;23;20021;-38
2023/01/19 01:16:43;;;;;;;10.35;5.72;;;;;;;14.87;51.24;100070.59;6156009;23;20096;-35
2023/01/19 01:19:10;;;;;;;10.75;5.82;;;;;;;14.88;51.16;100066.94;6155048;23;20025;-39
2023/01/19 01:21:37;;;;;;;10.35;5.45;;;;;;;14.88;50.58;100064.28;6154942;23;20025;-37
2023/01/19 01:24:04;;;;;;;11.55;5.78;;;;;;;14.88;50.67;100072.28;6153863;23;20027;-34
2023/01/19 01:26:30;;;;;;;10.00;5.90;;;;;;;14.88;50.91;100072.28;6154072;23;20105;-35
2023/01/19 01:28:57;;;;;;;9.25;5.18;;;;;;;14.88;51.20;100066.94;6155205;23;20275;-34
2023/01/19 01:31:24;;;;;;;9.32;5.07;;;;;;;14.86;50.68;100064.41;6155082;23;20029;-35
2023/01/19 01:33:50;;;;;;;10.15;4.97;;;;;;;14.88;51.32;100077.63;6154447;23;20080;-37
2023/01/19 01:36:20;;;;;;;11.80;4.90;;;;;;;14.87;50.75;100071.41;6154645;23;20176;-35
2023/01/19 01:38:48;;;;;;;9.05;4.95;;;;;;;14.87;51.37;100078.59;6153328;23;20046;-35
2023/01/19 01:41:14;;;;;;;9.65;4.95;;;;;;;14.88;50.96;100077.63;6153691;23;20029;-37
2023/01/19 01:43:55;;;;;;;8.90;5.10;;;;;;;14.86;51.32;100084.91;6155585;23;20025;-35
2023/01/19 01:46:21;;;;;;;7.35;4.40;;;;;;;14.88;50.50;100098.97;6153596;23;20485;-35
2023/01/19 01:48:54;;;;;;;8.10;4.57;;;;;;;14.87;51.09;100090.09;6154099;23;20028;-35
2023/01/19 01:51:43;;;;;;;8.98;4.65;;;;;;;14.85;50.94;100101.94;6154943;23;20048;-35
2023/01/19 01:54:20;;;;;;;7.63;4.30;;;;;;;14.88;51.73;100114.97;6154885;23;20021;-35
2023/01/19 01:56:50;;;;;;;9.30;4.13;;;;;;;14.87;51.93;100107.94;6153658;23;20025;-35
2023/01/19 01:59:24;;;;;;;7.35;4.07;;;;;;;14.87;51.11;100116.78;6153791;23;20416;-36
2023/01/19 02:04:57;;;;;;;6.45;3.58;;;;;;;14.86;51.61;100127.59;6154129;23;20093;-35
2023/01/19 02:13:21;;;;;;;6.00;3.60;;;;;;;14.88;51.99;100131.81;6155192;23;20047;-38
2023/01/19 02:15:53;;;;;;;6.32;3.67;;;;;;;14.88;51.17;100137.16;6155938;23;20343;-35
2023/01/19 02:18:22;;;;;;;5.85;3.33;;;;;;;14.88;51.35;100125.66;6153960;23;20025;-37
2023/01/19 02:21:13;;;;;;;6.10;3.20;;;;;;;14.87;51.45;100131.94;6155813;23;20030;-35
2023/01/19 02:23:48;;;;;;;5.32;3.00;;;;;;;14.90;52.00;100139.66;6154177;23;20017;-35
2023/01/19 02:26:19;;;;;;;7.55;2.92;;;;;;;14.88;51.11;100141.66;6155283;23;20031;-38
2023/01/19 02:28:56;;;;;;;4.68;2.70;;;;;;;14.87;52.08;100151.47;6155712;23;20019;-35
2023/01/19 02:31:23;;;;;;;6.72;2.85;;;;;;;14.88;52.12;100157.66;6156636;23;20267;-35
2023/01/19 02:33:51;;;;;;;5.15;2.90;;;;;;;14.87;52.00;100169.28;6155469;23;20036;-35
2023/01/19 02:36:24;;;;;;;4.57;2.50;;;;;;;14.86;51.78;100189.81;6156349;23;20289;-35
2023/01/19 02:38:55;;;;;;;4.15;2.40;;;;;;;14.86;51.50;100192.47;6154754;23;20029;-35
2023/01/19 02:41:26;;;;;;;3.95;2.33;;;;;;;14.86;51.44;100203.16;6155010;23;20275;-35
2023/01/19 02:43:56;;;;;;;4.30;2.33;;;;;;;14.85;51.38;100198.81;6156448;23;20021;-35
2023/01/19 02:46:23;;;;;;;5.35;2.47;;;;;;;14.85;52.29;100201.47;6152562;23;20235;-36
2023/01/19 02:48:50;;;;;;;5.30;2.80;;;;;;;14.86;51.41;100204.97;6153440;23;20282;-36
2023/01/19 02:51:21;;;;;;;5.07;2.45;;;;;;;14.84;52.36;100206.97;6154817;23;20025;-35
2023/01/19 02:54:01;;;;;;;4.25;2.33;;;;;;;14.82;51.70;100207.94;6153644;23;20060;-35
2023/01/19 02:56:42;;;;;;;4.95;2.35;;;;;;;14.81;52.37;100206.25;6155174;23;20051;-37
2023/01/19 02:59:25;;;;;;;4.35;2.33;;;;;;;14.82;51.81;100207.09;6153328;23;20021;-35
2023/01/19 03:01:52;;;;;;;2.90;1.98;;;;;;;14.82;51.62;100194.59;6155227;23;20032;-36
2023/01/19 03:04:50;;;;;;;4.95;2.47;;;;;;;14.80;51.49;100179.75;6154880;23;20108;-35
2023/01/19 03:07:38;;;;;;;3.85;2.03;;;;;;;14.79;52.27;100168.25;6154531;23;20024;-36
2023/01/19 03:10:36;;;;;;;3.17;1.90;;;;;;;14.79;51.42;100165.56;6154103;23;20026;-39
2023/01/19 03:13:38;;;;;;;4.80;2.17;;;;;;;14.78;51.97;100177.22;6154940;23;20021;-38
2023/01/19 03:16:27;;;;;;;2.78;1.83;;;;;;;14.82;51.04;100177.75;6093041;23;20307;-35
2023/01/19 03:19:07;;;;;;;3.80;1.90;;;;;;;14.82;51.97;100181.25;6154287;23;20025;-37
2023/01/19 03:21:35;;;;;;;3.60;1.90;;;;;;;14.83;51.62;100179.41;6154996;23;20025;-35
2023/01/19 03:24:06;;;;;;;3.80;2.30;;;;;;;14.85;51.34;100189.97;6153462;23;20022;-35
2023/01/19 03:26:39;;;;;;;4.57;2.10;;;;;;;14.82;51.48;100189.25;6153916;23;20029;-35
2023/01/19 03:29:09;;;;;;;3.90;1.98;;;;;;;14.84;51.73;100197.13;6154652;23;20018;-36
2023/01/19 03:31:38;;;;;;;5.90;2.28;;;;;;;14.84;51.25;100201.63;6154204;23;20025;-35
2023/01/19 03:34:08;;;;;;;2.83;1.98;;;;;;;14.83;52.25;100243.44;6155028;23;20029;-35
2023/01/19 03:36:39;;;;;;;3.03;1.50;;;;;;;14.84;52.05;100237.16;6155785;23;20444;-36
2023/01/19 03:39:08;;;;;;;2.80;1.55;;;;;;;14.84;51.50;100233.66;6156562;23;20057;-35
2023/01/19 03:41:38;;;;;;;3.25;1.90;;;;;;;14.83;52.29;100240.78;6156215;23;20290;-35
2023/01/19 03:44:06;;;;;;;2.42;1.48;;;;;;;14.83;51.42;100227.44;6155888;23;20021;-38
2023/01/19 03:46:33;;;;;;;2.53;1.40;;;;;;;14.80;52.27;100225.94;6153829;23;20124;-38
2023/01/19 03:49:00;;;;;;;3.83;2.00;;;;;;;14.79;52.06;100218.06;6154814;23;20397;-35
2023/01/19 03:51:26;;;;;;;2.30;1.52;;;;;;;14.80;51.36;100217.94;6154911;23;20031;-35
2023/01/19 03:53:53;;;;;;;2.22;1.50;;;;;;;14.78;51.26;100219.88;6155322;23;20025;-35
2023/01/19 03:56:22;;;;;;;2.97;1.65;;;;;;;14.77;51.30;100214.72;6155362;23;20559;-35
2023/01/19 03:58:50;;;;;;;2.80;1.52;;;;;;;14.76;51.66;100207.72;6156067;23;20169;-35
2023/01/19 04:01:21;;;;;;;2.75;1.70;;;;;;;14.75;52.12;100209.53;6154373;23;20059;-35
2023/01/19 04:03:49;;;;;;;2.88;1.55;;;;;;;14.75;51.26;100214.88;6155170;23;20030;-35
2023/01/19 04:06:17;;;;;;;4.53;2.00;;;;;;;14.74;52.09;100221.19;6155048;23;20452;-35
2023/01/19 04:08:44;;;;;;;2.63;1.58;;;;;;;14.74;51.84;100220.34;6153478;23;20021;-35
2023/01/19 04:11:11;;;;;;;2.75;1.50;;;;;;;14.73;51.31;100216.84;6155780;23;20049;-35
2023/01/19 04:13:37;;;;;;;2.58;1.40;;;;;;;14.74;51.11;100221.19;6156523;23;20100;-35
2023/01/19 04:16:05;;;;;;;2.65;1.50;;;;;;;14.74;51.95;100223.84;6156605;23;20131;-35
2023/01/19 04:18:32;;;;;;;3.17;1.60;;;;;;;14.74;51.56;100228.34;6156754;23;20072;-35
2023/01/19 04:21:06;;;;;;;2.00;1.40;;;;;;;14.72;51.05;100222.31;6155513;23;20030;-36
2023/01/19 04:23:33;;;;;;;4.07;1.58;;;;;;;14.74;51.60;100231.00;6156475;23;20021;-35
2023/01/19 04:26:02;;;;;;;1.98;1.27;;;;;;;14.72;52.03;100228.50;6155842;23;20414;-35
2023/01/19 04:28:30;;;;;;;3.35;1.63;;;;;;;14.72;51.92;100230.31;6156459;23;20025;-35
2023/01/19 04:30:57;;;;;;;2.90;1.42;;;;;;;14.71;51.39;100229.50;6156100;23;20406;-36
2023/01/19 04:33:24;;;;;;;2.70;1.35;;;;;;;14.71;51.58;100228.63;6157136;23;20026;-35
2023/01/19 04:35:51;;;;;;;1.50;1.30;;;;;;;14.70;51.64;100227.78;6156868;23;20021;-35
2023/01/19 04:38:20;;;;;;;2.95;1.48;;;;;;;14.68;51.15;100220.94;6155080;23;20128;-35
2023/01/19 04:40:48;;;;;;;2.33;1.20;;;;;;;14.70;51.33;100226.97;6154640;23;20029;-35
2023/01/19 04:43:14;;;;;;;1.52;1.13;;;;;;;14.68;51.76;100232.44;6157417;23;20060;-36
2023/01/19 04:45:43;;;;;;;2.03;1.35;;;;;;;14.68;51.76;100234.28;6154444;23;20026;-35
2023/01/19 04:48:11;;;;;;;1.38;0.93;;;;;;;14.69;52.03;100239.44;6154414;23;20036;-35
2023/01/19 04:50:37;;;;;;;2.40;1.48;;;;;;;14.67;51.86;100233.41;6155757;23;20298;-35
2023/01/19 04:53:04;;;;;;;2.50;1.20;;;;;;;14.70;52.11;100237.63;6152572;23;20032;-36
2023/01/19 04:55:31;;;;;;;1.95;0.95;;;;;;;14.71;51.60;100252.63;6153748;23;20112;-36
2023/01/19 04:57:58;;;;;;;3.92;1.50;;;;;;;14.71;51.83;100263.31;6152274;23;20100;-35
2023/01/19 05:00:25;;;;;;;2.50;1.40;;;;;;;14.72;52.10;100265.00;6153867;23;20018;-35
2023/01/19 05:02:52;;;;;;;2.15;1.20;;;;;;;14.71;51.19;100269.50;6154289;23;20021;-35
2023/01/19 05:05:19;;;;;;;3.22;1.50;;;;;;;14.72;51.50;100275.69;6153363;23;20029;-35
2023/01/19 05:07:45;;;;;;;6.57;1.83;;;;;;;14.72;52.34;100270.34;6156458;23;20044;-35
2023/01/19 05:10:12;;;;;;;4.20;2.25;;;;;;;14.72;51.78;100275.69;6155554;23;20021;-36
2023/01/19 05:12:40;;;;;;;4.95;2.15;;;;;;;14.72;51.46;100265.00;6154339;23;20028;-35
2023/01/19 05:15:08;;;;;;;4.55;2.35;;;;;;;14.73;51.24;100278.19;6154652;23;20032;-37
2023/01/19 05:17:35;;;;;;;4.60;2.58;;;;;;;14.73;52.24;100286.19;6154236;23;20113;-36
2023/01/19 05:20:03;;;;;;;5.55;2.80;;;;;;;14.73;51.75;100282.69;6155868;23;20092;-36
2023/01/19 05:22:29;;;;;;;7.05;3.53;;;;;;;14.73;52.09;100286.19;6156987;23;20036;-36
2023/01/19 05:24:57;;;;;;;7.50;3.92;;;;;;;14.72;52.28;100287.19;6153313;23;20398;-36
2023/01/19 05:27:23;;;;;;;7.72;4.50;;;;;;;14.72;51.70;100286.34;6154736;23;20116;-36
2023/01/19 05:29:50;;;;;;;9.10;5.22;;;;;;;14.72;52.27;100281.84;6154887;23;20036;-36
2023/01/19 05:32:17;;;;;;;11.85;5.82;;;;;;;14.73;51.73;100285.34;6154000;23;20021;-36
2023/01/19 05:34:43;;;;;;;11.05;6.03;;;;;;;14.72;51.78;100281.84;6153993;23;20303;-36
2023/01/19 05:37:10;;;;;;;12.52;5.93;;;;;;;14.73;51.91;100290.69;6154751;23;20030;-35
2023/01/19 05:39:37;;;;;;;13.18;6.53;;;;;;;14.72;51.70;100287.19;6152075;23;20028;-36
2023/01/19 05:42:03;;;;;;;11.93;6.45;;;;;;;14.72;51.91;100284.50;6152882;23;20292;-37
2023/01/19 05:44:30;;;;;;;11.02;6.47;;;;;;;14.73;51.35;100283.53;6154638;23;20037;-37
2023/01/19 05:46:56;;;;;;;12.38;6.90;;;;;;;14.74;52.47;100297.69;6153187;23;20049;-36
2023/01/19 05:49:23;;;;;;;14.18;7.75;;;;;;;14.73;52.23;100291.53;6154031;23;20274;-36
2023/01/19 05:51:49;;;;;;;18.25;8.48;;;;;;;14.73;51.40;100296.03;6152163;23;20026;-36
2023/01/19 05:54:16;;;;;;;14.60;8.00;;;;;;;14.74;52.20;100300.38;6152687;23;20053;-36
2023/01/19 05:56:43;;;;;;;15.85;7.47;;;;;;;14.74;51.31;100303.88;6152529;23;20098;-36
2023/01/19 05:59:09;;;;;;;16.40;7.95;;;;;;;14.75;51.66;100310.03;6152403;23;20461;-36
2023/01/19 06:01:37;;;;;;;15.07;8.52;;;;;;;14.75;51.82;100304.69;6152919;23;20025;-36
2023/01/19 06:04:05;;;;;;;15.50;7.78;;;;;;;14.75;51.49;100302.91;6152578;23;20049;-36
2023/01/19 06:06:32;;;;;;;16.75;8.75;;;;;;;14.76;51.78;100309.91;6152480;23;20096;-37
2023/01/19 06:08:58;;;;;;;16.73;8.82;;;;;;;14.76;51.35;100317.09;6150709;23;20416;-35
2023/01/19 06:11:25;;;;;;;17.00;8.90;;;;;;;14.76;52.20;100320.59;6153518;23;20028;-35
2023/01/19 06:13:51;;;;;;;23.17;11.20;;;;;;;14.79;52.36;100324.78;6151848;23;20080;-35
2023/01/19 06:16:18;;;;;;;23.55;11.15;;;;;;;14.79;51.82;100325.63;6153707;23;20551;-36
2023/01/19 06:18:45;;;;;;;22.95;11.60;;;;;;;14.80;52.56;100327.31;6148987;23;20091;-35
2023/01/19 06:21:13;;;;;;;28.10;12.65;;;;;;;14.81;52.13;100328.16;6152206;23;20036;-36
2023/01/19 06:23:39;;;;;;;26.90;12.68;;;;;;;14.80;51.79;100329.16;6152877;23;20037;-35
2023/01/19 06:26:06;;;;;;;26.98;11.88;;;;;;;14.80;52.77;100329.16;6153279;23;20026;-37
2023/01/19 06:28:33;;;;;;;25.20;12.50;;;;;;;14.78;51.99;100334.59;6151754;23;20032;-35
2023/01/19 06:31:00;;;;;;;27.50;12.70;;;;;;;14.79;51.82;100330.97;6148779;23;20024;-36
2023/01/19 06:33:27;;;;;;;28.77;12.65;;;;;;;14.79;51.73;100349.66;6151168;23;20036;-35
2023/01/19 06:35:54;;;;;;;26.65;13.55;;;;;;;14.79;52.59;100338.09;6152749;23;20359;-37
2023/01/19 06:38:21;;;;;;;28.15;13.18;;;;;;;14.79;52.27;100340.78;6148710;23;20025;-35
2023/01/19 06:40:53;;;;;;;26.83;11.80;;;;;;;14.78;51.77;100353.28;6151109;23;20021;-36
2023/01/19 06:43:20;;;;;;;27.10;12.90;;;;;;;14.78;52.67;100355.94;6153309;23;20453;-35
2023/01/19 06:45:47;;;;;;;26.13;12.65;;;;;;;14.77;52.33;100348.94;6153068;23;20390;-35
2023/01/19 06:48:14;;;;;;;25.15;12.80;;;;;;;14.76;51.62;100355.25;6153075;23;20068;-36
2023/01/19 06:50:43;;;;;;;28.25;12.82;;;;;;;14.76;51.74;100360.59;6154337;23;20437;-35
2023/01/19 06:53:10;;;;;;;30.75;14.30;;;;;;;14.76;52.29;100360.59;6154132;23;20364;-35
2023/01/19 06:55:38;;;;;;;26.55;13.32;;;;;;;14.75;51.71;100369.59;6152305;23;20330;-35
2023/01/19 06:58:05;;;;;;;24.10;12.20;;;;;;;14.74;52.48;100373.22;6154216;23;20100;-36
2023/01/19 07:00:31;;;;;;;28.30;12.63;;;;;;;14.73;52.44;100374.22;6154564;23;20025;-36
2023/01/19 07:02:58;;;;;;;23.70;12.30;;;;;;;14.75;51.92;100388.28;6154936;23;20025;-37
2023/01/19 07:05:25;;;;;;;27.20;12.30;;;;;;;14.72;52.18;100388.53;6154767;23;20021;-36
2023/01/19 07:07:56;;;;;;;28.67;13.18;;;;;;;14.72;52.37;100393.88;6154040;23;20021;-37
2023/01/19 07:10:23;;;;;;;27.75;13.90;;;;;;;14.72;51.98;100399.22;6152967;23;20045;-36
2023/01/19 07:12:50;;;;;;;26.15;12.45;;;;;;;14.71;52.02;100396.66;6153093;23;20033;-36
2023/01/19 07:15:21;;;;;;;23.73;11.88;;;;;;;14.70;51.98;100401.16;6153370;23;20335;-35
2023/01/19 07:17:48;;;;;;;23.13;12.80;;;;;;;14.69;52.63;100410.16;6151479;23;20235;-36
2023/01/19 07:20:16;;;;;;;24.80;11.77;;;;;;;14.67;51.63;100406.78;6151762;23;20264;-36
2023/01/19 07:22:45;;;;;;;24.27;11.80;;;;;;;14.67;51.84;100419.28;6152618;23;20049;-35
2023/01/19 07:25:12;;;;;;;24.85;12.52;;;;;;;14.67;51.94;100416.63;6150537;23;20346;-36
2023/01/19 07:27:39;;;;;;;25.42;12.80;;;;;;;14.67;52.49;100424.63;6151853;23;20398;-36
2023/01/19 07:30:07;;;;;;;24.35;11.63;;;;;;;14.66;52.61;100425.59;6154308;23;20022;-35
2023/01/19 07:32:34;;;;;;;24.08;11.93;;;;;;;14.66;52.27;100426.44;6155274;23;20096;-35
2023/01/19 07:35:01;;;;;;;23.25;11.95;;;;;;;14.67;51.61;100436.13;6154367;23;20432;-36
2023/01/19 07:37:28;;;;;;;22.25;11.70;;;;;;;14.66;51.95;100438.94;6155017;23;20116;-35
2023/01/19 07:39:54;;;;;;;20.08;11.35;;;;;;;14.67;52.01;100437.94;6152676;23;20043;-35
2023/01/19 07:42:21;;;;;;;22.38;11.60;;;;;;;14.66;52.36;100434.44;6153957;23;20104;-35
2023/01/19 07:44:48;;;;;;;20.67;11.38;;;;;;;14.67;51.98;100435.28;6151179;23;20022;-36
2023/01/19 07:47:14;;;;;;;22.75;11.45;;;;;;;14.66;51.72;100434.44;6154743;23;20030;-35
2023/01/19 07:49:41;;;;;;;21.65;11.15;;;;;;;14.66;51.75;100445.13;6154159;23;20101;-35
2023/01/19 07:52:08;;;;;;;21.35;10.90;;;;;;;14.66;52.31;100453.13;6154368;23;20129;-35
2023/01/19 07:54:35;;;;;;;21.27;11.85;;;;;;;14.65;51.85;100454.09;6150012;23;20029;-34
2023/01/19 07:57:01;;;;;;;20.83;11.57;;;;;;;14.66;51.58;100460.28;6151484;23;20021;-35
2023/01/19 07:59:29;;;;;;;21.88;11.18;;;;;;;14.66;51.97;100457.63;6150537;23;20128;-34
2023/01/19 08:01:58;;;;;;;21.05;11.35;;;;;;;14.65;51.63;100464.78;6150683;23;20096;-35
2023/01/19 08:04:26;;;;;;;20.95;10.48;;;;;;;14.65;52.55;100472.78;6150396;23;20106;-36
2023/01/19 08:06:53;;;;;;;23.45;11.40;;;;;;;14.64;52.03;100479.09;6152305;23;20037;-38
2023/01/19 08:09:20;;;;;;;21.55;10.88;;;;;;;14.65;52.05;100491.44;6153107;23;20021;-38
2023/01/19 08:11:46;;;;;;;21.50;11.48;;;;;;;14.64;51.79;100496.94;6154203;23;20028;-38
2023/01/19 08:14:13;;;;;;;25.08;12.63;;;;;;;14.63;52.77;100490.72;6154339;23;20088;-35
2023/01/19 08:16:40;;;;;;;24.13;11.02;;;;;;;14.66;51.72;100505.63;6152181;23;20113;-37
2023/01/19 08:19:06;;;;;;;23.88;12.55;;;;;;;14.64;52.08;100511.13;6128180;23;20028;-35
2023/01/19 08:21:34;;;;;;;23.23;11.50;;;;;;;14.64;52.13;100504.94;6155146;23;20021;-35
2023/01/19 08:24:01;;;;;;;22.58;12.05;;;;;;;14.65;52.00;100511.94;6153836;23;20022;-35
2023/01/19 08:26:33;;;;;;;22.00;10.98;;;;;;;14.64;52.34;100508.44;6154639;23;20087;-35
2023/01/19 08:29:02;;;;;;;22.50;12.30;;;;;;;14.65;51.79;100515.47;6152260;23;20341;-36
2023/01/19 08:31:29;;;;;;;22.25;11.63;;;;;;;14.66;52.53;100518.97;6155940;23;20032;-34
2023/01/19 08:33:56;;;;;;;21.60;12.10;;;;;;;14.65;52.48;100522.63;6154176;23;20076;-36
2023/01/19 08:36:23;;;;;;;20.85;11.23;;;;;;;14.66;51.73;100524.28;6155512;23;20025;-36
2023/01/19 08:38:50;;;;;;;21.42;11.20;;;;;;;14.67;52.59;100531.31;6154702;23;20132;-35
2023/01/19 08:41:17;;;;;;;19.17;10.75;;;;;;;14.68;52.72;100535.69;6154470;23;20021;-35
2023/01/19 08:43:44;;;;;;;21.98;11.18;;;;;;;14.69;51.90;100532.88;6155746;23;20021;-35
2023/01/19 08:46:11;;;;;;;23.48;10.38;;;;;;;14.69;52.24;100532.88;6156880;23;20025;-35
2023/01/19 08:48:37;;;;;;;21.77;11.40;;;;;;;14.70;52.64;100537.22;6154409;23;20029;-35
2023/01/19 08:51:05;;;;;;;17.80;9.77;;;;;;;14.69;52.43;100532.03;6153418;23;20028;-35
2023/01/19 08:53:32;;;;;;;19.05;10.13;;;;;;;14.70;51.77;100539.88;6151761;23;20052;-35
2023/01/19 08:56:02;;;;;;;20.25;10.52;;;;;;;14.71;52.51;100538.91;6153109;23;20117;-35
2023/01/19 08:58:28;;;;;;;19.95;10.32;;;;;;;14.71;51.81;100538.91;6150095;23;20031;-36
2023/01/19 09:00:55;;;;;;;17.48;9.90;;;;;;;14.72;52.11;100545.94;6156415;23;20100;-35
2023/01/19 09:03:22;;;;;;;21.13;10.18;;;;;;;14.74;52.17;100538.63;6156287;23;20021;-35
2023/01/19 09:05:49;;;;;;;18.27;9.77;;;;;;;14.77;52.59;100546.34;6155994;23;20033;-37
2023/01/19 09:08:16;;;;;;;19.17;10.35;;;;;;;14.79;52.40;100551.53;6154632;23;20112;-35
2023/01/19 09:10:48;;;;;;;22.30;10.95;;;;;;;14.82;52.19;100546.75;6154967;23;20032;-35
2023/01/19 09:13:17;;;;;;;19.25;9.65;;;;;;;14.86;53.02;100552.66;6153160;23;20412;-35
2023/01/19 09:15:44;;;;;;;20.52;9.98;;;;;;;14.89;51.89;100551.56;6155783;23;20406;-35
2023/01/19 09:18:14;;;;;;;21.05;10.20;;;;;;;14.91;52.52;100560.25;6155934;23;20100;-36
2023/01/19 09:20:42;;;;;;;20.17;10.07;;;;;;;14.95;51.92;100558.97;6155560;23;20029;-36
2023/01/19 09:23:14;;;;;;;18.10;9.77;;;;;;;14.97;52.60;100565.88;6151859;23;20424;-36
2023/01/19 09:25:42;;;;;;;20.85;11.02;;;;;;;15.01;51.99;100563.78;6154385;23;20108;-35
2023/01/19 09:28:11;;;;;;;18.90;10.18;;;;;;;15.05;51.66;100570.50;6154279;23;20578;-35
2023/01/19 09:30:39;;;;;;;22.08;10.15;;;;;;;15.10;51.83;100573.59;6153434;23;20021;-35
2023/01/19 09:33:10;;;;;;;20.27;10.15;;;;;;;15.14;51.83;100569.66;6152172;23;20032;-35
2023/01/19 09:35:38;;;;;;;21.83;10.93;;;;;;;15.19;52.45;100572.75;6153549;23;20021;-35
2023/01/19 09:38:07;;;;;;;20.92;11.55;;;;;;;15.23;52.50;100568.81;6151770;23;20104;-35
2023/01/19 09:40:39;;;;;;;21.48;11.05;;;;;;;15.27;51.54;100575.53;6152365;23;20029;-35
2023/01/19 09:43:13;;;;;;;22.42;11.30;;;;;;;15.33;51.49;100573.31;6155226;23;20302;-35
2023/01/19 09:45:59;;;;;;;20.45;11.18;;;;;;;15.38;52.33;100576.38;6155715;23;20399;-35
2023/01/19 09:48:33;;;;;;;18.92;10.48;;;;;;;15.42;51.12;100578.63;6155143;23;20259;-36
2023/01/19 09:51:03;;;;;;;19.88;10.65;;;;;;;15.48;51.33;100586.09;6155923;23;20067;-35
2023/01/19 09:53:50;;;;;;;20.67;11.10;;;;;;;15.52;52.04;100590.16;6154227;23;20080;-35
2023/01/19 09:56:21;;;;;;;19.55;10.95;;;;;;;15.59;51.91;100593.06;6155221;23;20025;-35
2023/01/19 09:58:49;;;;;;;22.75;11.15;;;;;;;15.64;50.99;100590.84;6155291;23;20033;-36
2023/01/19 10:01:48;;;;;;;21.73;11.38;;;;;;;15.70;51.18;100590.28;6155592;23;20026;-35
2023/01/19 10:04:32;;;;;;;20.10;10.25;;;;;;;15.77;51.97;100596.72;6151458;23;20065;-36
2023/01/19 10:07:08;;;;;;;22.15;11.73;;;;;;;15.83;51.04;100597.13;6152549;23;20105;-36
2023/01/19 10:10:09;;;;;;;22.02;10.80;;;;;;;15.89;51.99;100591.22;6150764;23;20104;-35
2023/01/19 10:12:51;;;;;;;19.35;11.02;;;;;;;15.94;50.66;100597.78;6136410;23;20152;-37
2023/01/19 10:15:28;;;;;;;20.17;10.95;;;;;;;16.01;51.38;100606.09;6151712;23;20071;-36
2023/01/19 10:18:33;;;;;;;25.35;13.05;;;;;;;16.07;50.97;100613.50;6152091;23;20025;-35
2023/01/19 10:21:09;;;;;;;30.08;14.70;;;;;;;16.13;51.21;100606.75;6152284;23;20021;-38
2023/01/19 10:23:45;;;;;;;36.47;17.10;;;;;;;16.17;50.56;100603.63;6150559;23;20433;-36
2023/01/19 10:26:24;;;;;;;32.55;17.42;;;;;;;16.22;50.58;100609.38;6152380;23;20124;-36
2023/01/19 10:28:56;;;;;;;33.17;16.75;;;;;;;16.27;50.64;100606.25;6151194;23;20485;-36
2023/01/19 10:31:23;;;;;;;33.00;17.70;;;;;;;16.31;50.96;100602.28;6152332;23;20429;-37
2023/01/19 10:33:51;;;;;;;36.65;18.38;;;;;;;16.34;50.35;100602.00;6149479;23;20419;-37
2023/01/19 10:36:24;;;;;;;39.53;19.55;;;;;;;16.39;50.72;100612.25;6151556;23;20021;-38
2023/01/19 10:38:51;;;;;;;38.63;19.38;;;;;;;16.42;50.55;100604.75;6151155;23;20189;-37
2023/01/19 10:41:25;;;;;;;36.28;18.92;;;;;;;16.45;50.62;100611.66;6148963;23;20286;-34
2023/01/19 10:44:03;;;;;;;39.88;20.25;;;;;;;16.47;50.45;100615.00;6152321;23;20030;-39
2023/01/19 10:46:47;;;;;;;39.95;19.67;;;;;;;16.48;50.53;100609.53;6152353;23;20096;-38
2023/01/19 10:49:37;;;;;;;38.95;20.17;;;;;;;16.52;50.58;100610.03;6151728;23;20032;-35
2023/01/19 10:52:06;;;;;;;39.05;19.75;;;;;;;16.56;49.78;100615.94;6152912;23;20080;-35
2023/01/19 10:54:36;;;;;;;39.67;20.95;;;;;;;16.58;50.43;100604.13;6153671;23;20037;-38
2023/01/19 10:57:06;;;;;;;38.97;20.50;;;;;;;16.60;50.34;100599.44;6153007;23;20021;-34
2023/01/19 10:59:36;;;;;;;37.55;20.65;;;;;;;16.62;50.00;100604.66;6153791;23;20049;-35
2023/01/19 11:02:27;;;;;;;43.15;21.63;;;;;;;16.65;49.68;100599.84;6153064;23;20026;-35
2023/01/19 11:05:00;;;;;;;38.58;19.35;;;;;;;16.67;50.01;100595.19;6151990;23;20021;-35
2023/01/19 11:07:32;;;;;;;39.63;21.38;;;;;;;16.70;49.76;100599.41;6153085;23;20419;-35
2023/01/19 11:10:19;;;;;;;43.60;21.33;;;;;;;16.71;49.60;100606.44;6149306;23;20026;-34
2023/01/19 11:13:14;;;;;;;43.40;22.63;;;;;;;16.73;50.13;100607.16;6152476;23;20067;-35
2023/01/19 11:15:42;;;;;;;45.25;22.35;;;;;;;16.76;49.86;100613.06;6153825;23;20112;-36
2023/01/19 11:18:30;;;;;;;45.47;23.42;;;;;;;16.77;49.85;100613.91;6154111;23;20469;-36
2023/01/19 11:21:05;;;;;;;43.25;23.17;;;;;;;16.80;49.76;100618.09;6154711;23;20466;-36
2023/01/19 11:23:41;;;;;;;47.95;23.88;;;;;;;16.81;49.34;100622.47;6152765;23;20103;-37
2023/01/19 11:26:15;;;;;;;46.85;25.38;;;;;;;16.82;49.71;100624.16;6154076;23;20052;-35
2023/01/19 11:28:47;;;;;;;45.15;23.58;;;;;;;16.83;49.40;100617.78;6153301;23;20267;-35
2023/01/19 11:31:13;;;;;;;41.05;21.95;;;;;;;16.83;48.65;100615.94;6153157;23;20057;-35
2023/01/19 11:33:52;;;;;;;43.38;22.52;;;;;;;16.82;48.66;100621.47;6153288;23;20060;-36
2023/01/19 11:36:21;;;;;;;46.78;23.88;;;;;;;16.83;48.90;100623.16;6152729;23;20061;-35
2023/01/19 11:39:10;;;;;;;41.70;22.33;;;;;;;16.83;48.07;100615.13;6149451;23;20029;-35
2023/01/19 11:41:38;;;;;;;41.75;21.80;;;;;;;16.81;48.63;100625.97;6128774;23;20403;-36